Terrytown, Louisiana
Current Conditions -  °F | °C
As of 2:55 PM on Thursday 20 Nov 2014 (Local Time) from KNBG Reporting Station
Scattered Clouds Scattered Clouds  
Wind Chill: 68°   Ceiling: Unl
Heat Index: 68°   Visibility: 10mi
Dew Point: 42°   Wind: 10mph
Humidity: 39%   Direction: 140°SE
Pressure: 30.2"   Gusts: NA
Location:  29.9°N, 90.03°W
Report Text: KNBG 202055Z 14009KT 10SM SCT060 SCT250 20/06 A3020 RMK AO2 SLP227 T02000056 56018 $
Loading
Personal Weather Stations






























Interactive Weather Map New forecast layout! Learn more

10-Day Weather Forecast

Advertisements
Track Severe Weather on mobile